sensor_id;sensor_type;location;lat;lon;timestamp;temperature;humidity
3069;DHT22;1545;51.728;8.796;2022-11-03T00:02:06;9.50;84.50
3069;DHT22;1545;51.728;8.796;2022-11-03T00:04:31;9.50;84.60
3069;DHT22;1545;51.728;8.796;2022-11-03T00:06:57;9.50;84.50
3069;DHT22;1545;51.728;8.796;2022-11-03T00:09:23;9.60;84.40
3069;DHT22;1545;51.728;8.796;2022-11-03T00:11:51;9.60;84.40
3069;DHT22;1545;51.728;8.796;2022-11-03T00:14:17;9.50;84.50
3069;DHT22;1545;51.728;8.796;2022-11-03T00:16:43;9.50;84.70
3069;DHT22;1545;51.728;8.796;2022-11-03T00:19:10;9.50;84.70
3069;DHT22;1545;51.728;8.796;2022-11-03T00:21:36;9.50;84.80
3069;DHT22;1545;51.728;8.796;2022-11-03T00:24:02;9.50;84.80
3069;DHT22;1545;51.728;8.796;2022-11-03T00:26:30;9.50;84.80
3069;DHT22;1545;51.728;8.796;2022-11-03T00:28:58;9.50;84.70
3069;DHT22;1545;51.728;8.796;2022-11-03T00:31:32;9.50;84.90
3069;DHT22;1545;51.728;8.796;2022-11-03T00:33:58;9.50;84.80
3069;DHT22;1545;51.728;8.796;2022-11-03T00:36:26;9.60;84.70
3069;DHT22;1545;51.728;8.796;2022-11-03T00:38:52;9.60;84.70
3069;DHT22;1545;51.728;8.796;2022-11-03T00:41:19;9.60;84.70
3069;DHT22;1545;51.728;8.796;2022-11-03T00:43:47;9.60;84.70
3069;DHT22;1545;51.728;8.796;2022-11-03T00:46:13;9.60;84.70
3069;DHT22;1545;51.728;8.796;2022-11-03T00:48:39;9.60;84.70
3069;DHT22;1545;51.728;8.796;2022-11-03T00:51:09;9.60;84.90
3069;DHT22;1545;51.728;8.796;2022-11-03T00:53:38;9.50;85.00
3069;DHT22;1545;51.728;8.796;2022-11-03T00:56:04;9.50;85.10
3069;DHT22;1545;51.728;8.796;2022-11-03T00:58:29;9.50;85.10
3069;DHT22;1545;51.728;8.796;2022-11-03T01:01:15;9.50;85.30
3069;DHT22;1545;51.728;8.796;2022-11-03T01:03:43;9.50;85.50
3069;DHT22;1545;51.728;8.796;2022-11-03T01:06:28;9.50;85.30
3069;DHT22;1545;51.728;8.796;2022-11-03T01:09:13;9.50;85.40
3069;DHT22;1545;51.728;8.796;2022-11-03T01:11:38;9.50;85.60
3069;DHT22;1545;51.728;8.796;2022-11-03T01:14:13;9.50;85.60
3069;DHT22;1545;51.728;8.796;2022-11-03T01:16:40;9.50;85.50
3069;DHT22;1545;51.728;8.796;2022-11-03T01:19:06;9.60;85.40
3069;DHT22;1545;51.728;8.796;2022-11-03T01:21:32;9.60;85.40
3069;DHT22;1545;51.728;8.796;2022-11-03T01:23:59;9.60;85.50
3069;DHT22;1545;51.728;8.796;2022-11-03T01:26:26;9.60;85.40
3069;DHT22;1545;51.728;8.796;2022-11-03T01:28:52;9.50;85.60
3069;DHT22;1545;51.728;8.796;2022-11-03T01:31:20;9.50;85.60
3069;DHT22;1545;51.728;8.796;2022-11-03T01:33:47;9.50;85.70
3069;DHT22;1545;51.728;8.796;2022-11-03T01:36:14;9.50;85.90
3069;DHT22;1545;51.728;8.796;2022-11-03T01:38:40;9.50;86.00
3069;DHT22;1545;51.728;8.796;2022-11-03T01:41:09;9.50;86.00
3069;DHT22;1545;51.728;8.796;2022-11-03T01:43:37;9.50;85.90
3069;DHT22;1545;51.728;8.796;2022-11-03T01:48:42;9.50;86.10
3069;DHT22;1545;51.728;8.796;2022-11-03T01:51:10;9.40;86.20
3069;DHT22;1545;51.728;8.796;2022-11-03T01:53:39;9.40;86.40
3069;DHT22;1545;51.728;8.796;2022-11-03T01:56:08;9.40;86.50
3069;DHT22;1545;51.728;8.796;2022-11-03T01:58:37;9.30;86.80
3069;DHT22;1545;51.728;8.796;2022-11-03T02:01:03;9.30;86.90
3069;DHT22;1545;51.728;8.796;2022-11-03T02:03:34;9.30;87.00
3069;DHT22;1545;51.728;8.796;2022-11-03T02:06:01;9.20;87.10
3069;DHT22;1545;51.728;8.796;2022-11-03T02:08:38;9.20;87.40
3069;DHT22;1545;51.728;8.796;2022-11-03T02:11:05;9.10;87.70
3069;DHT22;1545;51.728;8.796;2022-11-03T02:13:50;9.00;88.00
3069;DHT22;1545;51.728;8.796;2022-11-03T02:16:17;9.00;88.30
3069;DHT22;1545;51.728;8.796;2022-11-03T02:18:44;9.00;88.40
3069;DHT22;1545;51.728;8.796;2022-11-03T02:21:47;8.90;88.70
3069;DHT22;1545;51.728;8.796;2022-11-03T02:26:47;9.10;88.60
3069;DHT22;1545;51.728;8.796;2022-11-03T02:29:14;9.10;88.40
3069;DHT22;1545;51.728;8.796;2022-11-03T02:31:42;9.10;88.70
3069;DHT22;1545;51.728;8.796;2022-11-03T02:34:27;9.20;88.70
3069;DHT22;1545;51.728;8.796;2022-11-03T02:40:05;9.40;88.30
3069;DHT22;1545;51.728;8.796;2022-11-03T02:42:34;9.40;88.00
3069;DHT22;1545;51.728;8.796;2022-11-03T02:45:03;9.50;88.00
3069;DHT22;1545;51.728;8.796;2022-11-03T02:47:30;9.50;87.90
3069;DHT22;1545;51.728;8.796;2022-11-03T02:49:57;9.50;88.00
3069;DHT22;1545;51.728;8.796;2022-11-03T02:52:49;9.60;87.80
3069;DHT22;1545;51.728;8.796;2022-11-03T02:55:39;9.70;87.70
3069;DHT22;1545;51.728;8.796;2022-11-03T03:03:31;9.70;87.80
3069;DHT22;1545;51.728;8.796;2022-11-03T03:06:03;9.80;87.50
3069;DHT22;1545;51.728;8.796;2022-11-03T03:08:31;9.80;87.30
3069;DHT22;1545;51.728;8.796;2022-11-03T03:10:59;9.90;87.40
3069;DHT22;1545;51.728;8.796;2022-11-03T03:13:27;9.90;87.40
3069;DHT22;1545;51.728;8.796;2022-11-03T03:16:15;9.90;87.50
3069;DHT22;1545;51.728;8.796;2022-11-03T03:19:00;10.00;87.40
3069;DHT22;1545;51.728;8.796;2022-11-03T03:21:36;10.00;87.30
3069;DHT22;1545;51.728;8.796;2022-11-03T03:24:09;10.00;87.50
3069;DHT22;1545;51.728;8.796;2022-11-03T03:26:43;10.10;87.20
3069;DHT22;1545;51.728;8.796;2022-11-03T03:29:15;10.20;87.00
3069;DHT22;1545;51.728;8.796;2022-11-03T03:31:44;10.20;87.10
3069;DHT22;1545;51.728;8.796;2022-11-03T03:34:13;10.20;87.00
3069;DHT22;1545;51.728;8.796;2022-11-03T03:36:41;10.20;87.10
3069;DHT22;1545;51.728;8.796;2022-11-03T03:39:09;10.30;86.90
3069;DHT22;1545;51.728;8.796;2022-11-03T03:41:36;10.40;86.80
3069;DHT22;1545;51.728;8.796;2022-11-03T03:44:05;10.40;86.70
3069;DHT22;1545;51.728;8.796;2022-11-03T03:46:36;10.40;86.60
3069;DHT22;1545;51.728;8.796;2022-11-03T03:49:03;10.40;86.60
3069;DHT22;1545;51.728;8.796;2022-11-03T03:51:29;10.40;86.80
3069;DHT22;1545;51.728;8.796;2022-11-03T03:53:55;10.40;86.90
3069;DHT22;1545;51.728;8.796;2022-11-03T03:59:09;10.40;87.10
3069;DHT22;1545;51.728;8.796;2022-11-03T04:01:34;10.30;87.20
3069;DHT22;1545;51.728;8.796;2022-11-03T04:04:00;10.30;87.30
3069;DHT22;1545;51.728;8.796;2022-11-03T04:06:25;10.30;87.40
3069;DHT22;1545;51.728;8.796;2022-11-03T04:08:51;10.30;87.40
3069;DHT22;1545;51.728;8.796;2022-11-03T04:11:17;10.30;87.50
3069;DHT22;1545;51.728;8.796;2022-11-03T04:14:01;10.30;87.70
3069;DHT22;1545;51.728;8.796;2022-11-03T04:16:44;10.20;87.90
3069;DHT22;1545;51.728;8.796;2022-11-03T04:19:29;10.10;88.10
3069;DHT22;1545;51.728;8.796;2022-11-03T04:22:13;10.10;88.50
3069;DHT22;1545;51.728;8.796;2022-11-03T04:24:45;10.10;88.40
3069;DHT22;1545;51.728;8.796;2022-11-03T04:27:33;10.10;88.50
3069;DHT22;1545;51.728;8.796;2022-11-03T04:30:12;10.10;88.40
3069;DHT22;1545;51.728;8.796;2022-11-03T04:32:40;10.00;88.70
3069;DHT22;1545;51.728;8.796;2022-11-03T04:35:22;9.90;89.20
3069;DHT22;1545;51.728;8.796;2022-11-03T04:37:55;9.90;89.30
3069;DHT22;1545;51.728;8.796;2022-11-03T04:40:22;9.90;89.50
3069;DHT22;1545;51.728;8.796;2022-11-03T04:42:48;9.90;89.50
3069;DHT22;1545;51.728;8.796;2022-11-03T04:45:23;9.80;89.60
3069;DHT22;1545;51.728;8.796;2022-11-03T04:47:51;9.80;89.90
3069;DHT22;1545;51.728;8.796;2022-11-03T04:50:20;9.80;90.00
3069;DHT22;1545;51.728;8.796;2022-11-03T04:52:47;9.80;90.10
3069;DHT22;1545;51.728;8.796;2022-11-03T04:55:15;9.80;89.90
3069;DHT22;1545;51.728;8.796;2022-11-03T04:57:41;9.80;89.80
3069;DHT22;1545;51.728;8.796;2022-11-03T05:00:15;9.90;89.70
3069;DHT22;1545;51.728;8.796;2022-11-03T05:02:43;9.80;90.00
3069;DHT22;1545;51.728;8.796;2022-11-03T05:05:21;9.70;90.10
3069;DHT22;1545;51.728;8.796;2022-11-03T05:07:54;9.70;90.20
3069;DHT22;1545;51.728;8.796;2022-11-03T05:10:24;9.70;90.40
3069;DHT22;1545;51.728;8.796;2022-11-03T05:12:50;9.70;90.50
3069;DHT22;1545;51.728;8.796;2022-11-03T05:15:29;9.60;90.50
3069;DHT22;1545;51.728;8.796;2022-11-03T05:17:55;9.60;90.80
3069;DHT22;1545;51.728;8.796;2022-11-03T05:20:35;9.60;91.00
3069;DHT22;1545;51.728;8.796;2022-11-03T05:23:01;9.60;91.00
3069;DHT22;1545;51.728;8.796;2022-11-03T05:25:34;9.60;90.80
3069;DHT22;1545;51.728;8.796;2022-11-03T05:28:02;9.70;90.60
3069;DHT22;1545;51.728;8.796;2022-11-03T05:30:28;9.70;90.60
3069;DHT22;1545;51.728;8.796;2022-11-03T05:32:54;9.70;90.40
3069;DHT22;1545;51.728;8.796;2022-11-03T05:35:21;9.70;90.30
3069;DHT22;1545;51.728;8.796;2022-11-03T05:37:49;9.70;90.30
3069;DHT22;1545;51.728;8.796;2022-11-03T05:42:50;9.70;90.20
3069;DHT22;1545;51.728;8.796;2022-11-03T05:45:25;9.70;90.20
3069;DHT22;1545;51.728;8.796;2022-11-03T05:47:54;9.70;90.10
3069;DHT22;1545;51.728;8.796;2022-11-03T05:50:24;9.60;90.40
3069;DHT22;1545;51.728;8.796;2022-11-03T05:52:56;9.50;90.60
3069;DHT22;1545;51.728;8.796;2022-11-03T05:55:26;9.50;90.90
3069;DHT22;1545;51.728;8.796;2022-11-03T05:57:54;9.40;91.00
3069;DHT22;1545;51.728;8.796;2022-11-03T06:00:38;9.40;91.20
3069;DHT22;1545;51.728;8.796;2022-11-03T06:03:05;9.40;91.30
3069;DHT22;1545;51.728;8.796;2022-11-03T06:05:31;9.30;91.40
3069;DHT22;1545;51.728;8.796;2022-11-03T06:08:01;9.30;91.70
3069;DHT22;1545;51.728;8.796;2022-11-03T06:10:31;9.30;91.60
3069;DHT22;1545;51.728;8.796;2022-11-03T06:13:01;9.30;91.50
3069;DHT22;1545;51.728;8.796;2022-11-03T06:15:34;9.30;91.60
3069;DHT22;1545;51.728;8.796;2022-11-03T06:18:09;9.40;91.50
3069;DHT22;1545;51.728;8.796;2022-11-03T06:20:37;9.30;91.70
3069;DHT22;1545;51.728;8.796;2022-11-03T06:23:04;9.30;91.80
3069;DHT22;1545;51.728;8.796;2022-11-03T06:25:35;9.30;92.00
3069;DHT22;1545;51.728;8.796;2022-11-03T06:28:02;9.30;92.10
3069;DHT22;1545;51.728;8.796;2022-11-03T06:30:31;9.30;92.00
3069;DHT22;1545;51.728;8.796;2022-11-03T06:33:00;9.40;91.70
3069;DHT22;1545;51.728;8.796;2022-11-03T06:35:28;9.40;91.70
3069;DHT22;1545;51.728;8.796;2022-11-03T06:37:55;9.40;91.50
3069;DHT22;1545;51.728;8.796;2022-11-03T06:40:28;9.40;91.60
3069;DHT22;1545;51.728;8.796;2022-11-03T06:42:55;9.50;91.50
3069;DHT22;1545;51.728;8.796;2022-11-03T06:45:24;9.50;91.30
3069;DHT22;1545;51.728;8.796;2022-11-03T06:47:52;9.50;91.30
3069;DHT22;1545;51.728;8.796;2022-11-03T06:50:30;9.60;91.20
3069;DHT22;1545;51.728;8.796;2022-11-03T06:52:57;9.60;91.10
3069;DHT22;1545;51.728;8.796;2022-11-03T06:55:31;9.70;90.80
3069;DHT22;1545;51.728;8.796;2022-11-03T06:58:12;9.70;90.60
3069;DHT22;1545;51.728;8.796;2022-11-03T07:00:39;9.70;90.80
3069;DHT22;1545;51.728;8.796;2022-11-03T07:05:38;9.80;90.50
3069;DHT22;1545;51.728;8.796;2022-11-03T07:08:25;9.90;90.30
3069;DHT22;1545;51.728;8.796;2022-11-03T07:11:02;9.90;90.40
3069;DHT22;1545;51.728;8.796;2022-11-03T07:13:30;10.00;90.30
3069;DHT22;1545;51.728;8.796;2022-11-03T07:15:56;10.00;90.30
3069;DHT22;1545;51.728;8.796;2022-11-03T07:18:26;10.00;90.30
3069;DHT22;1545;51.728;8.796;2022-11-03T07:20:53;10.10;90.30
3069;DHT22;1545;51.728;8.796;2022-11-03T07:23:23;10.10;90.20
3069;DHT22;1545;51.728;8.796;2022-11-03T07:25:55;10.10;89.90
3069;DHT22;1545;51.728;8.796;2022-11-03T07:28:23;10.10;89.90
3069;DHT22;1545;51.728;8.796;2022-11-03T07:30:50;10.20;89.70
3069;DHT22;1545;51.728;8.796;2022-11-03T07:33:19;10.30;89.70
3069;DHT22;1545;51.728;8.796;2022-11-03T07:35:47;10.30;89.60
3069;DHT22;1545;51.728;8.796;2022-11-03T07:38:19;10.40;89.30
3069;DHT22;1545;51.728;8.796;2022-11-03T07:40:45;10.60;88.80
3069;DHT22;1545;51.728;8.796;2022-11-03T07:43:17;10.60;88.60
3069;DHT22;1545;51.728;8.796;2022-11-03T07:45:48;10.80;88.20
3069;DHT22;1545;51.728;8.796;2022-11-03T07:50:51;10.80;88.00
3069;DHT22;1545;51.728;8.796;2022-11-03T07:53:38;11.00;87.40
3069;DHT22;1545;51.728;8.796;2022-11-03T07:56:25;11.10;87.20
3069;DHT22;1545;51.728;8.796;2022-11-03T07:59:05;11.10;87.00
3069;DHT22;1545;51.728;8.796;2022-11-03T08:01:56;11.20;87.00
3069;DHT22;1545;51.728;8.796;2022-11-03T08:04:27;11.20;87.10
3069;DHT22;1545;51.728;8.796;2022-11-03T08:06:53;11.30;86.80
3069;DHT22;1545;51.728;8.796;2022-11-03T08:09:19;11.40;86.80
3069;DHT22;1545;51.728;8.796;2022-11-03T08:11:45;11.40;86.90
3069;DHT22;1545;51.728;8.796;2022-11-03T08:14:11;11.40;86.80
3069;DHT22;1545;51.728;8.796;2022-11-03T08:16:37;11.50;86.80
3069;DHT22;1545;51.728;8.796;2022-11-03T08:19:03;11.60;86.50
3069;DHT22;1545;51.728;8.796;2022-11-03T08:21:28;11.80;86.20
3069;DHT22;1545;51.728;8.796;2022-11-03T08:23:54;11.90;85.70
3069;DHT22;1545;51.728;8.796;2022-11-03T08:26:20;12.00;85.60
3069;DHT22;1545;51.728;8.796;2022-11-03T08:28:45;12.00;85.20
3069;DHT22;1545;51.728;8.796;2022-11-03T08:31:11;12.10;85.10
3069;DHT22;1545;51.728;8.796;2022-11-03T08:33:36;12.10;85.00
3069;DHT22;1545;51.728;8.796;2022-11-03T08:36:03;12.20;84.70
3069;DHT22;1545;51.728;8.796;2022-11-03T08:38:29;12.40;84.70
3069;DHT22;1545;51.728;8.796;2022-11-03T08:40:55;12.40;84.00
3069;DHT22;1545;51.728;8.796;2022-11-03T08:43:22;12.30;84.20
3069;DHT22;1545;51.728;8.796;2022-11-03T08:45:48;12.30;84.30
3069;DHT22;1545;51.728;8.796;2022-11-03T08:48:19;12.30;84.10
3069;DHT22;1545;51.728;8.796;2022-11-03T08:50:45;12.30;84.10
3069;DHT22;1545;51.728;8.796;2022-11-03T08:53:10;12.40;83.90
3069;DHT22;1545;51.728;8.796;2022-11-03T08:55:36;12.40;84.00
3069;DHT22;1545;51.728;8.796;2022-11-03T08:58:01;12.50;83.90
3069;DHT22;1545;51.728;8.796;2022-11-03T09:00:27;12.50;83.70
3069;DHT22;1545;51.728;8.796;2022-11-03T09:02:52;12.60;83.70
3069;DHT22;1545;51.728;8.796;2022-11-03T09:05:18;12.70;83.40
3069;DHT22;1545;51.728;8.796;2022-11-03T09:07:43;12.70;82.70
3069;DHT22;1545;51.728;8.796;2022-11-03T09:10:09;12.70;82.50
3069;DHT22;1545;51.728;8.796;2022-11-03T09:12:36;12.80;82.60
3069;DHT22;1545;51.728;8.796;2022-11-03T09:15:03;12.80;82.40
3069;DHT22;1545;51.728;8.796;2022-11-03T09:17:29;12.80;82.50
3069;DHT22;1545;51.728;8.796;2022-11-03T09:19:54;12.80;82.60
3069;DHT22;1545;51.728;8.796;2022-11-03T09:22:20;12.90;82.70
3069;DHT22;1545;51.728;8.796;2022-11-03T09:24:46;12.90;82.70
3069;DHT22;1545;51.728;8.796;2022-11-03T09:27:12;12.90;82.90
3069;DHT22;1545;51.728;8.796;2022-11-03T09:29:37;12.90;82.80
3069;DHT22;1545;51.728;8.796;2022-11-03T09:32:03;13.00;82.80
3069;DHT22;1545;51.728;8.796;2022-11-03T09:34:29;13.00;82.60
3069;DHT22;1545;51.728;8.796;2022-11-03T09:36:54;13.10;82.80
3069;DHT22;1545;51.728;8.796;2022-11-03T09:39:20;13.10;82.80
3069;DHT22;1545;51.728;8.796;2022-11-03T09:41:46;13.00;83.00
3069;DHT22;1545;51.728;8.796;2022-11-03T09:44:11;13.10;83.10
3069;DHT22;1545;51.728;8.796;2022-11-03T09:46:37;13.20;83.00
3069;DHT22;1545;51.728;8.796;2022-11-03T09:49:04;13.30;83.00
3069;DHT22;1545;51.728;8.796;2022-11-03T09:51:30;13.40;82.90
3069;DHT22;1545;51.728;8.796;2022-11-03T09:53:58;13.50;82.70
3069;DHT22;1545;51.728;8.796;2022-11-03T09:56:26;13.60;82.40
3069;DHT22;1545;51.728;8.796;2022-11-03T09:58:52;13.70;82.40
3069;DHT22;1545;51.728;8.796;2022-11-03T10:01:17;13.70;82.40
3069;DHT22;1545;51.728;8.796;2022-11-03T10:03:43;13.90;82.10
3069;DHT22;1545;51.728;8.796;2022-11-03T10:06:09;14.10;81.40
3069;DHT22;1545;51.728;8.796;2022-11-03T10:08:37;14.10;81.50
3069;DHT22;1545;51.728;8.796;2022-11-03T10:11:05;14.30;81.00
3069;DHT22;1545;51.728;8.796;2022-11-03T10:13:41;14.30;80.80
3069;DHT22;1545;51.728;8.796;2022-11-03T10:16:09;14.40;80.70
3069;DHT22;1545;51.728;8.796;2022-11-03T10:18:36;14.40;80.20
3069;DHT22;1545;51.728;8.796;2022-11-03T10:21:15;14.50;79.80
3069;DHT22;1545;51.728;8.796;2022-11-03T10:23:41;14.50;79.70
3069;DHT22;1545;51.728;8.796;2022-11-03T10:26:09;14.60;79.80
3069;DHT22;1545;51.728;8.796;2022-11-03T10:28:35;14.50;79.60
3069;DHT22;1545;51.728;8.796;2022-11-03T10:31:06;14.50;79.80
3069;DHT22;1545;51.728;8.796;2022-11-03T10:36:21;14.40;79.90
3069;DHT22;1545;51.728;8.796;2022-11-03T10:38:47;14.40;79.80
3069;DHT22;1545;51.728;8.796;2022-11-03T10:43:42;14.40;79.80
3069;DHT22;1545;51.728;8.796;2022-11-03T10:46:18;14.60;79.50
3069;DHT22;1545;51.728;8.796;2022-11-03T10:48:48;14.70;79.00
3069;DHT22;1545;51.728;8.796;2022-11-03T10:51:24;14.70;79.00
3069;DHT22;1545;51.728;8.796;2022-11-03T10:53:50;14.60;78.90
3069;DHT22;1545;51.728;8.796;2022-11-03T10:56:15;14.70;78.70
3069;DHT22;1545;51.728;8.796;2022-11-03T10:58:41;14.70;78.70
3069;DHT22;1545;51.728;8.796;2022-11-03T11:01:09;14.70;78.80
3069;DHT22;1545;51.728;8.796;2022-11-03T11:03:40;14.70;78.90
3069;DHT22;1545;51.728;8.796;2022-11-03T11:06:22;14.60;78.70
3069;DHT22;1545;51.728;8.796;2022-11-03T11:08:51;14.60;78.80
3069;DHT22;1545;51.728;8.796;2022-11-03T11:11:19;14.60;79.00
3069;DHT22;1545;51.728;8.796;2022-11-03T11:22:44;14.80;78.30
3069;DHT22;1545;51.728;8.796;2022-11-03T11:25:10;14.80;78.50
3069;DHT22;1545;51.728;8.796;2022-11-03T11:30:06;14.70;78.30
3069;DHT22;1545;51.728;8.796;2022-11-03T11:32:58;14.60;78.50
3069;DHT22;1545;51.728;8.796;2022-11-03T11:37:51;14.70;78.40
3069;DHT22;1545;51.728;8.796;2022-11-03T11:48:38;14.60;78.50
3069;DHT22;1545;51.728;8.796;2022-11-03T11:51:08;14.40;79.20
3069;DHT22;1545;51.728;8.796;2022-11-03T11:53:39;14.40;79.20
3069;DHT22;1545;51.728;8.796;2022-11-03T11:56:09;14.40;79.40
3069;DHT22;1545;51.728;8.796;2022-11-03T11:58:46;14.30;79.70
3069;DHT22;1545;51.728;8.796;2022-11-03T12:01:26;14.20;79.70
3069;DHT22;1545;51.728;8.796;2022-11-03T12:03:56;14.20;80.10
3069;DHT22;1545;51.728;8.796;2022-11-03T12:06:51;14.10;80.40
3069;DHT22;1545;51.728;8.796;2022-11-03T12:09:23;14.20;80.10
3069;DHT22;1545;51.728;8.796;2022-11-03T12:11:52;14.30;80.10
3069;DHT22;1545;51.728;8.796;2022-11-03T12:14:45;14.40;79.90
3069;DHT22;1545;51.728;8.796;2022-11-03T12:19:46;14.40;80.00
3069;DHT22;1545;51.728;8.796;2022-11-03T12:22:38;14.30;80.10
3069;DHT22;1545;51.728;8.796;2022-11-03T12:25:05;14.20;80.10
3069;DHT22;1545;51.728;8.796;2022-11-03T12:27:50;14.20;80.70
3069;DHT22;1545;51.728;8.796;2022-11-03T12:30:17;14.00;80.90
3069;DHT22;1545;51.728;8.796;2022-11-03T12:32:44;14.00;81.50
3069;DHT22;1545;51.728;8.796;2022-11-03T12:35:11;14.00;81.50
3069;DHT22;1545;51.728;8.796;2022-11-03T12:37:37;13.90;81.70
3069;DHT22;1545;51.728;8.796;2022-11-03T12:40:04;14.00;81.50
3069;DHT22;1545;51.728;8.796;2022-11-03T12:42:30;13.90;81.30
3069;DHT22;1545;51.728;8.796;2022-11-03T12:44:55;13.90;81.60
3069;DHT22;1545;51.728;8.796;2022-11-03T12:47:21;13.80;81.70
3069;DHT22;1545;51.728;8.796;2022-11-03T12:49:46;13.80;82.20
3069;DHT22;1545;51.728;8.796;2022-11-03T12:52:12;13.70;82.00
3069;DHT22;1545;51.728;8.796;2022-11-03T12:54:37;13.70;82.40
3069;DHT22;1545;51.728;8.796;2022-11-03T12:57:03;13.60;82.40
3069;DHT22;1545;51.728;8.796;2022-11-03T12:59:29;13.60;82.40
3069;DHT22;1545;51.728;8.796;2022-11-03T13:01:55;13.50;82.70
3069;DHT22;1545;51.728;8.796;2022-11-03T13:04:20;13.60;82.40
3069;DHT22;1545;51.728;8.796;2022-11-03T13:06:46;13.60;82.40
3069;DHT22;1545;51.728;8.796;2022-11-03T13:09:11;13.60;82.40
3069;DHT22;1545;51.728;8.796;2022-11-03T13:11:37;13.60;82.70
3069;DHT22;1545;51.728;8.796;2022-11-03T13:14:21;13.80;82.40
3069;DHT22;1545;51.728;8.796;2022-11-03T13:16:46;13.90;81.80
3069;DHT22;1545;51.728;8.796;2022-11-03T13:19:12;14.00;81.50
3069;DHT22;1545;51.728;8.796;2022-11-03T13:21:37;13.90;81.60
3069;DHT22;1545;51.728;8.796;2022-11-03T13:24:03;14.00;81.60
3069;DHT22;1545;51.728;8.796;2022-11-03T13:26:28;14.00;81.40
3069;DHT22;1545;51.728;8.796;2022-11-03T13:28:54;14.00;81.40
3069;DHT22;1545;51.728;8.796;2022-11-03T13:31:20;14.10;81.10
3069;DHT22;1545;51.728;8.796;2022-11-03T13:33:45;14.10;81.40
3069;DHT22;1545;51.728;8.796;2022-11-03T13:36:11;14.10;80.90
3069;DHT22;1545;51.728;8.796;2022-11-03T13:38:36;14.00;81.60
3069;DHT22;1545;51.728;8.796;2022-11-03T13:41:02;14.00;81.50
3069;DHT22;1545;51.728;8.796;2022-11-03T13:43:27;13.90;81.70
3069;DHT22;1545;51.728;8.796;2022-11-03T13:45:53;13.90;81.80
3069;DHT22;1545;51.728;8.796;2022-11-03T13:48:19;13.90;81.90
3069;DHT22;1545;51.728;8.796;2022-11-03T13:50:45;13.90;81.90
3069;DHT22;1545;51.728;8.796;2022-11-03T13:53:10;13.90;81.80
3069;DHT22;1545;51.728;8.796;2022-11-03T13:55:36;13.80;82.10
3069;DHT22;1545;51.728;8.796;2022-11-03T13:58:01;13.80;82.20
3069;DHT22;1545;51.728;8.796;2022-11-03T14:00:27;13.90;81.90
3069;DHT22;1545;51.728;8.796;2022-11-03T14:02:52;13.70;82.20
3069;DHT22;1545;51.728;8.796;2022-11-03T14:05:18;13.70;82.40
3069;DHT22;1545;51.728;8.796;2022-11-03T14:07:43;13.70;82.80
3069;DHT22;1545;51.728;8.796;2022-11-03T14:10:09;13.70;82.40
3069;DHT22;1545;51.728;8.796;2022-11-03T14:12:35;13.70;82.20
3069;DHT22;1545;51.728;8.796;2022-11-03T14:15:03;13.70;82.40
3069;DHT22;1545;51.728;8.796;2022-11-03T14:17:29;13.70;82.40
3069;DHT22;1545;51.728;8.796;2022-11-03T14:19:55;13.70;82.60
3069;DHT22;1545;51.728;8.796;2022-11-03T14:22:22;13.70;82.60
3069;DHT22;1545;51.728;8.796;2022-11-03T14:24:49;13.70;82.40
3069;DHT22;1545;51.728;8.796;2022-11-03T14:27:15;13.80;82.20
3069;DHT22;1545;51.728;8.796;2022-11-03T14:29:41;13.80;82.00
3069;DHT22;1545;51.728;8.796;2022-11-03T14:32:11;13.80;82.10
3069;DHT22;1545;51.728;8.796;2022-11-03T14:34:37;13.80;82.20
3069;DHT22;1545;51.728;8.796;2022-11-03T14:37:03;13.80;81.60
3069;DHT22;1545;51.728;8.796;2022-11-03T14:39:29;13.80;81.70
3069;DHT22;1545;51.728;8.796;2022-11-03T14:41:55;13.80;81.90
3069;DHT22;1545;51.728;8.796;2022-11-03T14:44:30;13.70;81.70
3069;DHT22;1545;51.728;8.796;2022-11-03T14:46:57;13.70;81.70
3069;DHT22;1545;51.728;8.796;2022-11-03T14:49:22;13.80;81.60
3069;DHT22;1545;51.728;8.796;2022-11-03T14:51:48;13.80;81.70
3069;DHT22;1545;51.728;8.796;2022-11-03T14:54:13;13.80;81.60
3069;DHT22;1545;51.728;8.796;2022-11-03T14:56:39;13.80;81.80
3069;DHT22;1545;51.728;8.796;2022-11-03T14:59:04;13.80;81.80
3069;DHT22;1545;51.728;8.796;2022-11-03T15:01:30;13.80;81.80
3069;DHT22;1545;51.728;8.796;2022-11-03T15:03:56;13.70;81.50
3069;DHT22;1545;51.728;8.796;2022-11-03T15:06:21;13.70;81.60
3069;DHT22;1545;51.728;8.796;2022-11-03T15:08:47;13.60;81.50
3069;DHT22;1545;51.728;8.796;2022-11-03T15:11:13;13.50;82.10
3069;DHT22;1545;51.728;8.796;2022-11-03T15:13:38;13.50;81.90
3069;DHT22;1545;51.728;8.796;2022-11-03T15:16:04;13.50;81.90
3069;DHT22;1545;51.728;8.796;2022-11-03T15:18:30;13.40;82.00
3069;DHT22;1545;51.728;8.796;2022-11-03T15:20:56;13.40;81.70
3069;DHT22;1545;51.728;8.796;2022-11-03T15:23:21;13.40;81.70
3069;DHT22;1545;51.728;8.796;2022-11-03T15:25:47;13.40;81.70
3069;DHT22;1545;51.728;8.796;2022-11-03T15:28:13;13.30;81.70
3069;DHT22;1545;51.728;8.796;2022-11-03T15:30:38;13.30;81.90
3069;DHT22;1545;51.728;8.796;2022-11-03T15:33:04;13.20;81.80
3069;DHT22;1545;51.728;8.796;2022-11-03T15:35:29;13.20;81.90
3069;DHT22;1545;51.728;8.796;2022-11-03T15:37:55;13.20;81.70
3069;DHT22;1545;51.728;8.796;2022-11-03T15:40:23;13.20;81.70
3069;DHT22;1545;51.728;8.796;2022-11-03T15:42:49;13.20;81.80
3069;DHT22;1545;51.728;8.796;2022-11-03T15:45:14;13.10;82.00
3069;DHT22;1545;51.728;8.796;2022-11-03T15:47:40;13.10;81.90
3069;DHT22;1545;51.728;8.796;2022-11-03T15:50:07;13.10;82.00
3069;DHT22;1545;51.728;8.796;2022-11-03T15:52:32;13.10;82.00
3069;DHT22;1545;51.728;8.796;2022-11-03T15:54:58;13.00;82.30
3069;DHT22;1545;51.728;8.796;2022-11-03T15:57:23;13.00;82.40
3069;DHT22;1545;51.728;8.796;2022-11-03T15:59:49;13.00;82.40
3069;DHT22;1545;51.728;8.796;2022-11-03T16:02:15;12.90;82.70
3069;DHT22;1545;51.728;8.796;2022-11-03T16:04:40;12.90;82.90
3069;DHT22;1545;51.728;8.796;2022-11-03T16:07:06;12.90;83.00
3069;DHT22;1545;51.728;8.796;2022-11-03T16:09:31;12.90;83.10
3069;DHT22;1545;51.728;8.796;2022-11-03T16:11:57;12.90;83.20
3069;DHT22;1545;51.728;8.796;2022-11-03T16:14:22;12.90;83.20
3069;DHT22;1545;51.728;8.796;2022-11-03T16:16:48;12.90;83.20
3069;DHT22;1545;51.728;8.796;2022-11-03T16:19:13;12.90;83.10
3069;DHT22;1545;51.728;8.796;2022-11-03T16:21:39;12.90;83.00
3069;DHT22;1545;51.728;8.796;2022-11-03T16:24:04;12.90;83.00
3069;DHT22;1545;51.728;8.796;2022-11-03T16:26:30;12.90;82.80
3069;DHT22;1545;51.728;8.796;2022-11-03T16:28:59;12.90;83.00
3069;DHT22;1545;51.728;8.796;2022-11-03T16:31:25;12.80;83.00
3069;DHT22;1545;51.728;8.796;2022-11-03T16:33:50;12.80;83.10
3069;DHT22;1545;51.728;8.796;2022-11-03T16:36:17;12.80;83.10
3069;DHT22;1545;51.728;8.796;2022-11-03T16:38:43;12.80;83.20
3069;DHT22;1545;51.728;8.796;2022-11-03T16:41:09;12.80;83.10
3069;DHT22;1545;51.728;8.796;2022-11-03T16:43:34;12.80;83.30
3069;DHT22;1545;51.728;8.796;2022-11-03T16:46:00;12.80;83.40
3069;DHT22;1545;51.728;8.796;2022-11-03T16:48:25;12.80;83.40
3069;DHT22;1545;51.728;8.796;2022-11-03T16:50:51;12.70;83.60
3069;DHT22;1545;51.728;8.796;2022-11-03T16:53:16;12.70;83.60
3069;DHT22;1545;51.728;8.796;2022-11-03T16:55:42;12.80;83.40
3069;DHT22;1545;51.728;8.796;2022-11-03T16:58:10;12.80;83.30
3069;DHT22;1545;51.728;8.796;2022-11-03T17:00:36;12.80;83.20
3069;DHT22;1545;51.728;8.796;2022-11-03T17:03:01;12.80;83.20
3069;DHT22;1545;51.728;8.796;2022-11-03T17:05:27;12.90;83.20
3069;DHT22;1545;51.728;8.796;2022-11-03T17:07:52;12.90;83.20
3069;DHT22;1545;51.728;8.796;2022-11-03T17:10:18;12.80;83.20
3069;DHT22;1545;51.728;8.796;2022-11-03T17:12:43;12.90;83.20